createdAt,value
2023-01-29T00:00:09.964Z,102519.28
2023-01-29T00:01:11.841Z,102521.19
2023-01-29T00:02:13.417Z,102516.38
2023-01-29T00:03:16.015Z,102517.94
2023-01-29T00:04:18.184Z,102504.25
2023-01-29T00:05:28.456Z,102505.25
2023-01-29T00:06:30.656Z,102495.31
2023-01-29T00:07:32.550Z,102503.22
2023-01-29T00:08:38.621Z,102497.06
2023-01-29T00:09:40.429Z,102506.44
2023-01-29T00:10:41.841Z,102501.91
2023-01-29T00:11:43.572Z,102501.31
2023-01-29T00:12:44.970Z,102491.53
2023-01-29T00:13:46.701Z,102497.53
2023-01-29T00:14:48.166Z,102498.56
2023-01-29T00:15:57.438Z,102495.03
2023-01-29T00:16:58.839Z,102494.31
2023-01-29T00:18:00.249Z,102491.38
2023-01-29T00:19:02.636Z,102488.34
2023-01-29T00:20:04.341Z,102488.34
2023-01-29T00:21:13.469Z,102504.25
2023-01-29T00:22:14.953Z,102490.97
2023-01-29T00:23:16.543Z,102493.47
2023-01-29T00:24:18.166Z,102494.97
2023-01-29T00:25:19.597Z,102487.50
2023-01-29T00:26:21.073Z,102495.53
2023-01-29T00:27:22.513Z,102491.09
2023-01-29T00:28:23.962Z,102482.75
2023-01-29T00:29:25.409Z,102499.13
2023-01-29T00:30:26.822Z,102492.53
2023-01-29T00:31:28.727Z,102490.94
2023-01-29T00:32:30.203Z,102484.66
2023-01-29T00:33:31.643Z,102491.38
2023-01-29T00:34:33.070Z,102483.34
2023-01-29T00:35:35.114Z,102493.06
2023-01-29T00:36:36.579Z,102487.69
2023-01-29T00:37:38.454Z,102483.19
2023-01-29T00:38:40.112Z,102482.16
2023-01-29T00:39:47.805Z,102470.56
2023-01-29T00:41:08.469Z,102466.31
2023-01-29T00:42:28.250Z,102465.59
2023-01-29T00:43:48.102Z,102471.81
2023-01-29T00:44:58.745Z,102468.13
2023-01-29T00:46:00.176Z,102457.25
2023-01-29T00:47:02.429Z,102463.94
2023-01-29T00:48:04.259Z,102463.84
2023-01-29T00:49:07.076Z,102465.53
2023-01-29T00:50:11.119Z,102466.31
2023-01-29T00:51:12.567Z,102453.59
2023-01-29T00:52:26.027Z,102450.00
2023-01-29T00:53:28.013Z,102439.97
2023-01-29T00:54:30.099Z,102445.63
2023-01-29T00:55:32.426Z,102440.88
2023-01-29T00:56:36.690Z,102452.56
2023-01-29T00:57:39.011Z,102451.59
2023-01-29T00:58:40.508Z,102445.88
2023-01-29T00:59:41.970Z,102445.06
2023-01-29T01:00:43.510Z,102447.88
2023-01-29T01:02:03.568Z,102444.47
2023-01-29T01:03:07.904Z,102455.59
2023-01-29T01:04:11.354Z,102459.25
2023-01-29T01:05:18.189Z,102455.59
2023-01-29T01:06:19.774Z,102443.63
2023-01-29T01:07:21.198Z,102458.09
2023-01-29T01:08:41.367Z,102445.56
2023-01-29T01:10:01.096Z,102441.72
2023-01-29T01:11:05.332Z,102457.34
2023-01-29T01:12:06.794Z,102454.84
2023-01-29T01:13:08.367Z,102460.94
2023-01-29T01:14:09.808Z,102461.84
2023-01-29T01:15:11.882Z,102457.34
2023-01-29T01:16:15.511Z,102452.06
2023-01-29T01:17:17.415Z,102456.69
2023-01-29T01:18:22.183Z,102451.91
2023-01-29T01:19:23.611Z,102450.06
2023-01-29T01:20:27.062Z,102462.09
2023-01-29T01:21:28.479Z,102464.78
2023-01-29T01:22:31.116Z,102458.75
2023-01-29T01:23:33.256Z,102465.94
2023-01-29T01:24:34.573Z,102469.63
2023-01-29T01:25:36.353Z,102458.69
2023-01-29T01:26:37.815Z,102463.53
2023-01-29T01:27:41.261Z,102456.22
2023-01-29T01:28:42.736Z,102460.84
2023-01-29T01:29:44.149Z,102452.41
2023-01-29T01:30:45.669Z,102453.34
2023-01-29T01:31:47.142Z,102449.53
2023-01-29T01:32:48.847Z,102454.91
2023-01-29T01:33:51.577Z,102462.75
2023-01-29T01:34:53.598Z,102457.31
2023-01-29T01:35:55.024Z,102455.41
2023-01-29T01:36:56.574Z,102454.78
2023-01-29T01:37:58.128Z,102457.47
2023-01-29T01:38:59.586Z,102456.75
2023-01-29T01:40:00.974Z,102456.91
2023-01-29T01:41:02.400Z,102453.19
2023-01-29T01:42:03.967Z,102452.38
2023-01-29T01:43:06.173Z,102452.31
2023-01-29T01:44:07.805Z,102460.25
2023-01-29T01:45:19.915Z,102453.03
2023-01-29T01:46:22.229Z,102451.81
2023-01-29T01:47:29.384Z,102455.66
2023-01-29T01:48:30.830Z,102461.00
2023-01-29T01:49:32.260Z,102447.38
2023-01-29T01:50:49.769Z,102457.56
2023-01-29T01:51:52.583Z,102458.41
2023-01-29T01:52:59.892Z,102461.00
2023-01-29T01:54:09.934Z,102457.31
2023-01-29T01:55:14.697Z,102454.78
2023-01-29T01:56:27.808Z,102460.91
2023-01-29T01:57:32.099Z,102454.56
2023-01-29T01:58:37.448Z,102465.59
2023-01-29T01:59:40.879Z,102462.81
2023-01-29T02:00:42.791Z,102467.28
2023-01-29T02:01:50.118Z,102463.59
2023-01-29T02:03:10.497Z,102459.94
2023-01-29T02:04:35.295Z,102458.41
2023-01-29T02:05:56.613Z,102450.16
2023-01-29T02:07:19.495Z,102451.03
2023-01-29T02:08:50.873Z,102454.72
2023-01-29T02:09:58.079Z,102446.03
2023-01-29T02:11:00.154Z,102446.72
2023-01-29T02:12:03.839Z,102440.53
2023-01-29T02:13:07.295Z,102435.19
2023-01-29T02:14:09.302Z,102433.47
2023-01-29T02:15:11.477Z,102442.34
2023-01-29T02:16:12.788Z,102440.75
2023-01-29T02:17:16.898Z,102432.50
2023-01-29T02:18:21.489Z,102442.34
2023-01-29T02:19:47.112Z,102442.44
2023-01-29T02:21:34.745Z,102438.06
2023-01-29T02:22:54.979Z,102430.72
2023-01-29T02:23:56.408Z,102436.69
2023-01-29T02:25:16.602Z,102439.59
2023-01-29T02:26:40.890Z,102436.00
2023-01-29T02:27:48.354Z,102438.69
2023-01-29T02:29:25.350Z,102434.97
2023-01-29T02:30:46.143Z,102436.53
2023-01-29T02:31:57.015Z,102436.44
2023-01-29T02:33:16.570Z,102424.63
2023-01-29T02:34:27.590Z,102417.69
2023-01-29T02:35:34.565Z,102427.47
2023-01-29T02:36:45.649Z,102430.34
2023-01-29T02:38:05.083Z,102427.66
2023-01-29T02:39:21.246Z,102428.56
2023-01-29T02:40:36.932Z,102432.50
2023-01-29T02:42:00.827Z,102419.19
2023-01-29T02:43:06.441Z,102427.88
2023-01-29T02:44:22.794Z,102433.38
2023-01-29T02:45:59.684Z,102433.31
2023-01-29T02:47:21.954Z,102432.41
2023-01-29T02:48:27.616Z,102440.75
2023-01-29T02:49:34.118Z,102438.16
2023-01-29T02:50:57.873Z,102438.06
2023-01-29T02:52:14.931Z,102424.63
2023-01-29T02:53:27.341Z,102425.56
2023-01-29T02:54:41.911Z,102422.78
2023-01-29T02:56:02.694Z,102427.47
2023-01-29T02:57:16.428Z,102422.41
2023-01-29T02:58:44.133Z,102410.38
2023-01-29T02:59:55.400Z,102411.50
2023-01-29T03:01:04.436Z,102415.41
2023-01-29T03:02:12.962Z,102401.88
2023-01-29T03:03:19.035Z,102405.69
2023-01-29T03:04:25.857Z,102391.47
2023-01-29T03:05:35.102Z,102382.13
2023-01-29T03:06:42.111Z,102390.53
2023-01-29T03:07:52.013Z,102396.00
2023-01-29T03:09:01.141Z,102394.66
2023-01-29T03:10:08.243Z,102402.03
2023-01-29T03:11:14.807Z,102408.34
2023-01-29T03:12:33.858Z,102407.22
2023-01-29T03:13:43.248Z,102407.53
2023-01-29T03:15:07.601Z,102402.03
2023-01-29T03:16:32.557Z,102405.53
2023-01-29T03:17:41.076Z,102405.84
2023-01-29T03:19:05.873Z,102399.56
2023-01-29T03:20:13.835Z,102396.06
2023-01-29T03:21:41.216Z,102402.47
2023-01-29T03:22:48.843Z,102395.81
2023-01-29T03:24:08.654Z,102391.31
2023-01-29T03:25:30.995Z,102391.31
2023-01-29T03:26:50.706Z,102385.81
2023-01-29T03:28:22.943Z,102387.78
2023-01-29T03:29:43.237Z,102395.75
2023-01-29T03:31:10.724Z,102394.53
2023-01-29T03:32:14.588Z,102396.50
2023-01-29T03:33:19.330Z,102399.00
2023-01-29T03:34:28.369Z,102395.34
2023-01-29T03:35:37.445Z,102392.06
2023-01-29T03:36:56.290Z,102394.66
2023-01-29T03:37:57.733Z,102385.97
2023-01-29T03:38:59.418Z,102384.03
2023-01-29T03:40:05.401Z,102384.13
2023-01-29T03:41:16.456Z,102380.28
2023-01-29T03:42:26.599Z,102380.13
2023-01-29T03:43:33.673Z,102378.28
2023-01-29T03:44:40.251Z,102380.94
2023-01-29T03:46:00.108Z,102381.66
2023-01-29T03:47:43.398Z,102375.59
2023-01-29T03:48:54.484Z,102374.63
2023-01-29T03:50:19.530Z,102375.38
2023-01-29T03:51:32.441Z,102370.09
2023-01-29T03:52:47.213Z,102371.00
2023-01-29T03:53:55.436Z,102361.91
2023-01-29T03:54:57.677Z,102364.34
2023-01-29T03:56:08.547Z,102363.59
2023-01-29T03:57:33.452Z,102355.72
2023-01-29T03:58:47.593Z,102353.63
2023-01-29T03:59:57.792Z,102358.53
2023-01-29T04:01:09.045Z,102346.75
2023-01-29T04:02:15.504Z,102347.56
2023-01-29T04:03:33.243Z,102349.56
2023-01-29T04:04:37.555Z,102345.97
2023-01-29T04:06:11.657Z,102342.53
2023-01-29T04:07:24.408Z,102338.78
2023-01-29T04:08:30.474Z,102331.84
2023-01-29T04:09:37.337Z,102338.66
2023-01-29T04:10:41.996Z,102329.66
2023-01-29T04:11:49.547Z,102331.03
2023-01-29T04:12:59.682Z,102322.25
2023-01-29T04:14:01.279Z,102321.91
2023-01-29T04:15:09.124Z,102325.75
2023-01-29T04:16:16.853Z,102315.88
2023-01-29T04:17:24.111Z,102307.03
2023-01-29T04:18:25.635Z,102310.69
2023-01-29T04:19:28.076Z,102312.53
2023-01-29T04:20:29.890Z,102305.53
2023-01-29T04:21:32.015Z,102299.97
2023-01-29T04:22:35.154Z,102302.13
2023-01-29T04:23:36.562Z,102288.59
2023-01-29T04:24:38.077Z,102295.78
2023-01-29T04:26:06.791Z,102293.34
2023-01-29T04:27:29.742Z,102291.41
2023-01-29T04:29:16.498Z,102288.69
2023-01-29T04:30:18.153Z,102286.25
2023-01-29T04:31:27.226Z,102274.22
2023-01-29T04:32:40.729Z,102291.59
2023-01-29T04:34:05.623Z,102295.41
2023-01-29T04:35:41.810Z,102277.88
2023-01-29T04:37:02.876Z,102279.88
2023-01-29T04:38:10.354Z,102283.03
2023-01-29T04:39:28.726Z,102278.66
2023-01-29T04:41:02.263Z,102276.81
2023-01-29T04:42:14.701Z,102269.78
2023-01-29T04:43:24.537Z,102268.97
2023-01-29T04:44:37.593Z,102270.72
2023-01-29T04:45:47.996Z,102268.09
2023-01-29T04:47:03.357Z,102271.94
2023-01-29T04:48:30.165Z,102269.94
2023-01-29T04:49:43.846Z,102276.44
2023-01-29T04:50:56.637Z,102269.25
2023-01-29T04:52:07.095Z,102283.47
2023-01-29T04:53:37.449Z,102275.56
2023-01-29T04:54:54.266Z,102278.25
2023-01-29T04:56:06.163Z,102279.81
2023-01-29T04:57:17.965Z,102276.13
2023-01-29T04:58:33.120Z,102278.88
2023-01-29T04:59:44.987Z,102285.31
2023-01-29T05:00:53.444Z,102285.16
2023-01-29T05:01:55.531Z,102279.03
2023-01-29T05:02:57.525Z,102282.53
2023-01-29T05:04:02.093Z,102276.59
2023-01-29T05:05:06.112Z,102279.97
2023-01-29T05:06:09.942Z,102277.34
2023-01-29T05:07:14.388Z,102272.16
2023-01-29T05:08:21.654Z,102278.25
2023-01-29T05:09:25.033Z,102273.97
2023-01-29T05:10:27.218Z,102280.09
2023-01-29T05:11:30.683Z,102280.09
2023-01-29T05:12:34.155Z,102276.66
2023-01-29T05:13:40.533Z,102273.97
2023-01-29T05:14:44.471Z,102273.09
2023-01-29T05:15:52.424Z,102286.53
2023-01-29T05:16:58.234Z,102286.38
2023-01-29T05:18:02.875Z,102285.47
2023-01-29T05:19:04.315Z,102279.97
2023-01-29T05:20:07.065Z,102271.09
2023-01-29T05:21:09.463Z,102278.56
2023-01-29T05:22:15.403Z,102281.16
2023-01-29T05:23:18.764Z,102276.81
2023-01-29T05:24:22.449Z,102290.22
2023-01-29T05:25:26.712Z,102282.22
2023-01-29T05:26:46.451Z,102288.66
2023-01-29T05:28:11.848Z,102286.97
2023-01-29T05:29:13.291Z,102295.75
2023-01-29T05:30:15.112Z,102290.66
2023-01-29T05:31:16.880Z,102287.03
2023-01-29T05:32:18.443Z,102275.25
2023-01-29T05:33:29.014Z,102285.19
2023-01-29T05:34:30.615Z,102282.53
2023-01-29T05:35:32.311Z,102280.84
2023-01-29T05:36:33.708Z,102279.00
2023-01-29T05:37:35.153Z,102281.44
2023-01-29T05:38:36.540Z,102287.59
2023-01-29T05:39:37.965Z,102290.13
2023-01-29T05:40:39.423Z,102293.56
2023-01-29T05:41:41.089Z,102290.97
2023-01-29T05:42:42.541Z,102295.38
2023-01-29T05:43:43.979Z,102282.78
2023-01-29T05:44:45.589Z,102302.53
2023-01-29T05:45:55.491Z,102296.03
2023-01-29T05:46:57.128Z,102282.50
2023-01-29T05:48:00.006Z,102297.88
2023-01-29T05:49:01.459Z,102288.97
2023-01-29T05:50:02.940Z,102295.19
2023-01-29T05:51:05.180Z,102286.97
2023-01-29T05:52:06.559Z,102298.59
2023-01-29T05:53:09.349Z,102292.66
2023-01-29T05:54:13.920Z,102302.44
2023-01-29T05:55:15.469Z,102296.03
2023-01-29T05:56:16.870Z,102302.91
2023-01-29T05:57:18.310Z,102313.25
2023-01-29T05:58:19.818Z,102314.91
2023-01-29T05:59:21.384Z,102303.97
2023-01-29T06:00:23.078Z,102303.22
2023-01-29T06:01:26.350Z,102312.00
2023-01-29T06:02:31.571Z,102312.09
2023-01-29T06:03:33.093Z,102306.72
2023-01-29T06:04:34.513Z,102322.09
2023-01-29T06:05:39.613Z,102315.75
2023-01-29T06:06:41.019Z,102315.06
2023-01-29T06:07:45.234Z,102316.22
2023-01-29T06:08:47.306Z,102316.22
2023-01-29T06:09:48.778Z,102319.88
2023-01-29T06:10:50.204Z,102327.06
2023-01-29T06:11:51.687Z,102319.13
2023-01-29T06:12:53.123Z,102316.44
2023-01-29T06:13:54.699Z,102324.25
2023-01-29T06:14:56.121Z,102320.78
2023-01-29T06:15:57.629Z,102323.19
2023-01-29T06:16:59.344Z,102324.16
2023-01-29T06:18:00.783Z,102332.13
2023-01-29T06:19:02.186Z,102335.66
2023-01-29T06:20:04.845Z,102330.28
2023-01-29T06:21:09.337Z,102329.38
2023-01-29T06:22:10.922Z,102328.78
2023-01-29T06:23:12.433Z,102329.59
2023-01-29T06:24:14.025Z,102334.97
2023-01-29T06:25:15.730Z,102325.63
2023-01-29T06:26:17.160Z,102332.13
2023-01-29T06:27:18.900Z,102329.59
2023-01-29T06:28:20.313Z,102321.34
2023-01-29T06:29:21.798Z,102327.69
2023-01-29T06:30:23.372Z,102326.91
2023-01-29T06:31:37.976Z,102319.03
2023-01-29T06:32:40.562Z,102327.22
2023-01-29T06:33:42.034Z,102319.72
2023-01-29T06:34:43.448Z,102317.88
2023-01-29T06:35:44.865Z,102316.91
2023-01-29T06:36:46.686Z,102314.38
2023-01-29T06:37:48.165Z,102311.63
2023-01-29T06:38:49.616Z,102311.00
2023-01-29T06:39:51.105Z,102304.44
2023-01-29T06:40:55.492Z,102310.84
2023-01-29T06:41:56.958Z,102319.81
2023-01-29T06:43:00.541Z,102312.84
2023-01-29T06:44:01.996Z,102316.91
2023-01-29T06:45:03.688Z,102317.00
2023-01-29T06:46:07.566Z,102326.78
2023-01-29T06:47:08.970Z,102322.25
2023-01-29T06:48:10.377Z,102312.38
2023-01-29T06:49:11.822Z,102312.69
2023-01-29T06:50:13.295Z,102314.38
2023-01-29T06:51:14.772Z,102320.78
2023-01-29T06:52:16.381Z,102328.78
2023-01-29T06:53:18.275Z,102325.22
2023-01-29T06:54:19.734Z,102327.16
2023-01-29T06:55:21.140Z,102332.56
2023-01-29T06:56:23.631Z,102332.66
2023-01-29T06:57:25.172Z,102331.59
2023-01-29T06:58:26.702Z,102325.06
2023-01-29T06:59:28.132Z,102333.41
2023-01-29T07:00:31.298Z,102338.63
2023-01-29T07:01:36.368Z,102332.34
2023-01-29T07:02:38.164Z,102331.50
2023-01-29T07:03:41.492Z,102319.31
2023-01-29T07:04:42.950Z,102327.22
2023-01-29T07:05:50.839Z,102319.13
2023-01-29T07:06:52.265Z,102319.19
2023-01-29T07:07:54.111Z,102329.06
2023-01-29T07:08:55.810Z,102328.13
2023-01-29T07:09:57.206Z,102331.66
2023-01-29T07:11:00.909Z,102326.63
2023-01-29T07:12:02.327Z,102326.53
2023-01-29T07:13:03.717Z,102314.84
2023-01-29T07:14:05.587Z,102322.19
2023-01-29T07:15:07.620Z,102320.47
2023-01-29T07:16:09.618Z,102313.22
2023-01-29T07:17:11.140Z,102313.28
2023-01-29T07:18:12.622Z,102309.47
2023-01-29T07:19:14.231Z,102316.03
2023-01-29T07:20:16.131Z,102316.09
2023-01-29T07:21:17.733Z,102309.06
2023-01-29T07:22:19.137Z,102312.72
2023-01-29T07:23:20.566Z,102308.25
2023-01-29T07:24:22.145Z,102303.44
2023-01-29T07:25:24.712Z,102307.09
2023-01-29T07:26:26.308Z,102308.06
2023-01-29T07:27:27.692Z,102306.41
2023-01-29T07:28:29.409Z,102306.69
2023-01-29T07:29:30.903Z,102308.66
2023-01-29T07:30:32.395Z,102303.31
2023-01-29T07:31:34.352Z,102310.19
2023-01-29T07:32:35.876Z,102309.34
2023-01-29T07:33:37.328Z,102310.19
2023-01-29T07:34:38.727Z,102310.06
2023-01-29T07:35:42.217Z,102314.56
2023-01-29T07:36:43.629Z,102319.09
2023-01-29T07:37:45.102Z,102316.56
2023-01-29T07:38:50.541Z,102322.75
2023-01-29T07:39:52.052Z,102317.53
2023-01-29T07:40:53.821Z,102315.56
2023-01-29T07:41:55.235Z,102309.50
2023-01-29T07:43:05.208Z,102312.34
2023-01-29T07:44:06.618Z,102306.91
2023-01-29T07:45:08.686Z,102319.09
2023-01-29T07:46:10.133Z,102314.56
2023-01-29T07:47:12.221Z,102316.47
2023-01-29T07:48:14.104Z,102315.72
2023-01-29T07:49:16.566Z,102310.28
2023-01-29T07:50:18.291Z,102290.69
2023-01-29T07:51:21.345Z,102301.47
2023-01-29T07:52:22.800Z,102301.31
2023-01-29T07:53:25.243Z,102289.06
2023-01-29T07:54:26.661Z,102284.63
2023-01-29T07:55:28.354Z,102287.22
2023-01-29T07:56:29.825Z,102294.44
2023-01-29T07:57:31.260Z,102288.06
2023-01-29T07:58:34.410Z,102285.47
2023-01-29T07:59:37.000Z,102275.53
2023-01-29T08:00:38.720Z,102271.28
2023-01-29T08:01:40.122Z,102273.38
2023-01-29T08:02:41.973Z,102272.50
2023-01-29T08:03:43.386Z,102270.59
2023-01-29T08:04:44.852Z,102260.88
2023-01-29T08:05:47.012Z,102261.59
2023-01-29T08:06:48.417Z,102268.97
2023-01-29T08:08:05.739Z,102275.13
2023-01-29T08:09:08.792Z,102274.28
2023-01-29T08:10:10.858Z,102277.09
2023-01-29T08:11:12.264Z,102289.81
2023-01-29T08:12:14.405Z,102282.66
2023-01-29T08:13:15.726Z,102279.22
2023-01-29T08:14:17.212Z,102280.06
2023-01-29T08:15:18.647Z,102261.03
2023-01-29T08:16:20.105Z,102264.53
2023-01-29T08:17:21.586Z,102261.16
2023-01-29T08:18:23.003Z,102270.34
2023-01-29T08:19:24.456Z,102250.31
2023-01-29T08:20:26.327Z,102274.84
2023-01-29T08:21:27.904Z,102265.72
2023-01-29T08:22:29.355Z,102272.00
2023-01-29T08:23:30.838Z,102272.00
2023-01-29T08:24:47.437Z,102274.63
2023-01-29T08:25:54.165Z,102274.78
2023-01-29T08:26:55.679Z,102263.00
2023-01-29T08:27:58.082Z,102275.72
2023-01-29T08:28:59.578Z,102270.53
2023-01-29T08:30:01.058Z,102265.13
2023-01-29T08:31:02.596Z,102274.09
2023-01-29T08:32:04.126Z,102263.50
2023-01-29T08:33:05.643Z,102270.63
2023-01-29T08:34:07.119Z,102257.78
2023-01-29T08:35:09.073Z,102275.06
2023-01-29T08:36:10.751Z,102269.03
2023-01-29T08:37:12.202Z,102262.56
2023-01-29T08:38:13.635Z,102266.09
2023-01-29T08:39:15.242Z,102262.44
2023-01-29T08:40:16.993Z,102260.72
2023-01-29T08:41:18.527Z,102261.75
2023-01-29T08:42:19.961Z,102260.94
2023-01-29T08:43:21.360Z,102268.78
2023-01-29T08:44:22.786Z,102264.56
2023-01-29T08:45:24.230Z,102264.47
2023-01-29T08:46:25.954Z,102262.94
2023-01-29T08:47:28.740Z,102270.19
2023-01-29T08:48:31.248Z,102259.41
2023-01-29T08:49:32.742Z,102270.31
2023-01-29T08:50:35.051Z,102271.19
2023-01-29T08:51:36.491Z,102264.13
2023-01-29T08:52:37.950Z,102265.53
2023-01-29T08:53:39.369Z,102266.81
2023-01-29T08:54:40.781Z,102268.44
2023-01-29T08:55:42.219Z,102266.44
2023-01-29T08:56:44.005Z,102268.66
2023-01-29T08:57:45.487Z,102263.41
2023-01-29T08:58:46.931Z,102269.63
2023-01-29T08:59:48.361Z,102267.78
2023-01-29T09:00:49.785Z,102271.94
2023-01-29T09:01:51.250Z,102272.25
2023-01-29T09:02:52.662Z,102273.13
2023-01-29T09:03:54.061Z,102272.38
2023-01-29T09:04:55.796Z,102255.28
2023-01-29T09:05:57.218Z,102262.41
2023-01-29T09:06:58.718Z,102262.41
2023-01-29T09:08:00.182Z,102260.88
2023-01-29T09:09:01.700Z,102257.34
2023-01-29T09:10:03.594Z,102253.66
2023-01-29T09:11:05.302Z,102260.88
2023-01-29T09:12:06.944Z,102257.34
2023-01-29T09:13:08.375Z,102251.69
2023-01-29T09:14:12.239Z,102250.97
2023-01-29T09:15:13.702Z,102245.56
2023-01-29T09:16:15.201Z,102248.31
2023-01-29T09:17:16.638Z,102251.19
2023-01-29T09:18:18.243Z,102254.81
2023-01-29T09:19:19.664Z,102243.25
2023-01-29T09:20:21.226Z,102245.22
2023-01-29T09:21:22.627Z,102242.72
2023-01-29T09:22:24.362Z,102246.63
2023-01-29T09:23:25.841Z,102254.22
2023-01-29T09:24:27.277Z,102251.69
2023-01-29T09:25:28.713Z,102252.50
2023-01-29T09:26:30.248Z,102254.50
2023-01-29T09:27:31.749Z,102244.78
2023-01-29T09:28:33.200Z,102249.00
2023-01-29T09:29:35.955Z,102247.56
2023-01-29T09:30:38.181Z,102244.91
2023-01-29T09:31:39.817Z,102249.13
2023-01-29T09:32:53.157Z,102250.34
2023-01-29T09:33:55.255Z,102253.16
2023-01-29T09:34:57.454Z,102231.63
2023-01-29T09:35:58.921Z,102245.38
2023-01-29T09:37:00.369Z,102253.63
2023-01-29T09:38:02.047Z,102249.34
2023-01-29T09:39:03.565Z,102230.31
2023-01-29T09:40:05.719Z,102247.72
2023-01-29T09:41:23.839Z,102252.38
2023-01-29T09:42:30.767Z,102244.53
2023-01-29T09:43:42.962Z,102242.69
2023-01-29T09:45:10.499Z,102251.84
2023-01-29T09:46:29.188Z,102251.06
2023-01-29T09:47:34.564Z,102248.25
2023-01-29T09:48:36.824Z,102244.66
2023-01-29T09:49:43.489Z,102236.34
2023-01-29T09:50:49.784Z,102235.75
2023-01-29T09:52:02.499Z,102227.84
2023-01-29T09:53:21.955Z,102227.94
2023-01-29T09:54:29.761Z,102222.41
2023-01-29T09:55:36.396Z,102218.94
2023-01-29T09:56:37.894Z,102217.50
2023-01-29T09:57:50.010Z,102215.53
2023-01-29T09:58:51.561Z,102208.72
2023-01-29T09:59:53.121Z,102205.16
2023-01-29T10:01:23.368Z,102208.97
2023-01-29T10:03:12.474Z,102208.25
2023-01-29T10:04:37.437Z,102202.63
2023-01-29T10:05:50.813Z,102195.88
2023-01-29T10:07:26.513Z,102179.56
2023-01-29T10:09:06.522Z,102192.50
2023-01-29T10:10:37.472Z,102184.25
2023-01-29T10:11:44.361Z,102189.88
2023-01-29T10:13:08.054Z,102203.94
2023-01-29T10:14:12.205Z,102194.25
2023-01-29T10:15:28.793Z,102179.59
2023-01-29T10:16:49.124Z,102191.13
2023-01-29T10:18:05.556Z,102185.22
2023-01-29T10:19:16.238Z,102178.03
2023-01-29T10:20:35.833Z,102173.91
2023-01-29T10:22:10.670Z,102170.22
2023-01-29T10:23:21.188Z,102157.06
2023-01-29T10:24:39.194Z,102156.97
2023-01-29T10:25:42.146Z,102152.44
2023-01-29T10:26:43.659Z,102153.47
2023-01-29T10:27:54.869Z,102155.91
2023-01-29T10:28:59.470Z,102169.22
2023-01-29T10:30:04.194Z,102166.72
2023-01-29T10:31:12.535Z,102160.78
2023-01-29T10:32:19.934Z,102164.03
2023-01-29T10:34:10.925Z,102164.97
2023-01-29T10:35:22.042Z,102174.78
2023-01-29T10:36:44.229Z,102165.81
2023-01-29T10:37:45.875Z,102170.53
2023-01-29T10:38:49.060Z,102183.38
2023-01-29T10:39:51.187Z,102172.41
2023-01-29T10:41:01.058Z,102166.38
2023-01-29T10:42:23.694Z,102170.69
2023-01-29T10:43:43.925Z,102172.59
2023-01-29T10:44:48.227Z,102161.53
2023-01-29T10:45:54.876Z,102151.34
2023-01-29T10:47:05.713Z,102153.91
2023-01-29T10:48:40.883Z,102155.31
2023-01-29T10:50:01.008Z,102152.06
2023-01-29T10:51:05.292Z,102156.47
2023-01-29T10:52:37.640Z,102154.78
2023-01-29T10:53:59.380Z,102151.22
2023-01-29T10:55:05.288Z,102147.25
2023-01-29T10:56:23.678Z,102145.72
2023-01-29T10:57:45.224Z,102134.34
2023-01-29T10:58:59.443Z,102141.59
2023-01-29T11:00:18.901Z,102136.22
2023-01-29T11:01:20.747Z,102139.78
2023-01-29T11:02:22.707Z,102135.69
2023-01-29T11:03:28.336Z,102142.22
2023-01-29T11:04:32.360Z,102133.53
2023-01-29T11:05:44.286Z,102127.81
2023-01-29T11:06:46.216Z,102128.38
2023-01-29T11:07:49.345Z,102124.34
2023-01-29T11:09:11.716Z,102117.56
2023-01-29T11:10:20.526Z,102112.41
2023-01-29T11:11:39.452Z,102111.53
2023-01-29T11:12:42.010Z,102108.88
2023-01-29T11:13:52.982Z,102120.91
2023-01-29T11:15:01.604Z,102114.09
2023-01-29T11:16:05.372Z,102112.41
2023-01-29T11:17:15.795Z,102117.75
2023-01-29T11:18:17.451Z,102114.59
2023-01-29T11:19:36.302Z,102103.38
2023-01-29T11:20:37.848Z,102106.44
2023-01-29T11:21:53.332Z,102104.72
2023-01-29T11:22:55.726Z,102102.28
2023-01-29T11:24:17.597Z,102099.53
2023-01-29T11:25:20.289Z,102104.34
2023-01-29T11:26:23.790Z,102100.13
2023-01-29T11:27:29.491Z,102101.28
2023-01-29T11:28:45.617Z,102094.16
2023-01-29T11:29:51.139Z,102086.13
2023-01-29T11:30:53.377Z,102080.31
2023-01-29T11:31:55.334Z,102087.28
2023-01-29T11:33:21.968Z,102086.72
2023-01-29T11:34:27.784Z,102082.25
2023-01-29T11:35:30.597Z,102078.03
2023-01-29T11:36:38.335Z,102071.25
2023-01-29T11:37:42.401Z,102077.56
2023-01-29T11:38:43.839Z,102077.66
2023-01-29T11:39:50.506Z,102079.53
2023-01-29T11:40:52.693Z,102074.97
2023-01-29T11:42:05.084Z,102078.72
2023-01-29T11:43:18.798Z,102078.03
2023-01-29T11:44:26.380Z,102059.78
2023-01-29T11:45:32.160Z,102067.06
2023-01-29T11:46:33.691Z,102057.94
2023-01-29T11:47:35.464Z,102056.09
2023-01-29T11:48:43.808Z,102060.56
2023-01-29T11:49:49.480Z,102070.25
2023-01-29T11:50:53.806Z,102055.94
2023-01-29T11:51:56.591Z,102058.94
2023-01-29T11:53:01.665Z,102050.00
2023-01-29T11:54:05.226Z,102056.53
2023-01-29T11:55:18.039Z,102052.00
2023-01-29T11:56:45.941Z,102046.53
2023-01-29T11:57:52.722Z,102048.63
2023-01-29T11:58:57.549Z,102043.94
2023-01-29T12:00:20.462Z,102051.53
2023-01-29T12:01:42.136Z,102040.25
2023-01-29T12:02:47.227Z,102041.47
2023-01-29T12:03:53.862Z,102047.00
2023-01-29T12:05:00.138Z,102039.47
2023-01-29T12:06:08.992Z,102051.56
2023-01-29T12:07:15.820Z,102041.47
2023-01-29T12:08:18.857Z,102038.91
2023-01-29T12:09:24.188Z,102039.00
2023-01-29T12:10:40.843Z,102046.31
2023-01-29T12:11:42.274Z,102040.16
2023-01-29T12:12:43.829Z,102038.31
2023-01-29T12:13:54.641Z,102041.00
2023-01-29T12:15:14.120Z,102035.00
2023-01-29T12:16:25.624Z,102033.81
2023-01-29T12:17:30.744Z,102033.16
2023-01-29T12:18:37.577Z,102023.06
2023-01-29T12:19:46.326Z,102017.88
2023-01-29T12:20:59.870Z,102014.56
2023-01-29T12:22:35.300Z,102019.03
2023-01-29T12:23:51.847Z,102003.78
2023-01-29T12:25:16.311Z,102008.38
2023-01-29T12:26:35.314Z,102003.06
2023-01-29T12:28:09.567Z,102006.69
2023-01-29T12:29:56.281Z,102001.16
2023-01-29T12:31:00.489Z,102008.38
2023-01-29T12:32:15.014Z,102003.00
2023-01-29T12:33:26.659Z,102010.88
2023-01-29T12:34:34.643Z,102010.03
2023-01-29T12:35:44.122Z,101993.84
2023-01-29T12:36:47.022Z,101994.91
2023-01-29T12:38:00.913Z,101994.06
2023-01-29T12:39:02.440Z,102000.22
2023-01-29T12:40:21.707Z,101992.19
2023-01-29T12:41:26.002Z,101999.00
2023-01-29T12:42:28.064Z,101987.19
2023-01-29T12:44:14.350Z,101991.63
2023-01-29T12:45:22.663Z,101977.25
2023-01-29T12:46:30.198Z,101965.53
2023-01-29T12:47:38.223Z,101959.25
2023-01-29T12:48:43.777Z,101961.06